createdAt,value
2018-05-03T00:03:46.862Z,70.65
2018-05-03T00:09:52.056Z,71.25
2018-05-03T00:15:56.457Z,71.63
2018-05-03T00:22:01.773Z,72.18
2018-05-03T00:28:06.149Z,72.51
2018-05-03T00:34:10.539Z,72.25
2018-05-03T00:40:15.082Z,72.56
2018-05-03T00:46:20.936Z,73.01
2018-05-03T00:52:25.397Z,73.24
2018-05-03T00:58:29.828Z,73.02
2018-05-03T01:04:34.187Z,73.51
2018-05-03T01:10:38.526Z,73.58
2018-05-03T01:16:43.099Z,74.05
2018-05-03T01:22:48.253Z,74.02
2018-05-03T01:28:53.304Z,73.94
2018-05-03T01:35:15.526Z,75.33
2018-05-03T01:41:20.083Z,75.82
2018-05-03T01:47:24.484Z,75.97
2018-05-03T01:53:28.882Z,76.44
2018-05-03T01:59:34.085Z,76.06
2018-05-03T02:05:38.476Z,76.65
2018-05-03T02:11:42.836Z,76.48
2018-05-03T02:17:47.642Z,77.12
2018-05-03T02:23:52.178Z,77.55
2018-05-03T02:29:56.647Z,77.77
2018-05-03T02:36:01.880Z,77.77
2018-05-03T02:42:06.230Z,78.02
2018-05-03T02:48:11.538Z,78.35
2018-05-03T02:54:15.899Z,78.52
2018-05-03T03:00:44.560Z,78.96
2018-05-03T03:07:12.410Z,79.05
2018-05-03T03:13:48.065Z,79.19
2018-05-03T03:27:27.377Z,79.39
2018-05-03T03:40:38.863Z,79.22
2018-05-03T03:46:43.323Z,78.65
2018-05-03T03:52:47.741Z,78.56
2018-05-03T03:58:52.728Z,77.77
2018-05-03T04:04:57.621Z,79.08
2018-05-03T04:11:02.059Z,79.81
2018-05-03T04:17:07.199Z,80.02
2018-05-03T04:23:43.356Z,79.49
2018-05-03T04:29:47.882Z,79.74
2018-05-03T04:35:53.095Z,79.51
2018-05-03T04:41:57.506Z,79.52
2018-05-03T04:48:01.896Z,79.46
2018-05-03T04:54:06.310Z,78.89
2018-05-03T05:00:10.708Z,77.50
2018-05-03T05:06:15.181Z,77.85
2018-05-03T05:12:19.613Z,77.50
2018-05-03T05:18:24.137Z,76.55
2018-05-03T05:24:28.534Z,77.54
2018-05-03T05:30:32.911Z,76.58
2018-05-03T05:36:37.291Z,77.57
2018-05-03T05:42:41.733Z,77.31
2018-05-03T05:48:46.185Z,76.65
2018-05-03T05:54:50.820Z,76.58
2018-05-03T06:00:56.041Z,76.18
2018-05-03T06:07:00.461Z,76.56
2018-05-03T06:13:04.846Z,76.23
2018-05-03T06:19:09.228Z,77.05
2018-05-03T06:25:13.611Z,77.22
2018-05-03T06:31:18.876Z,75.89
2018-05-03T06:37:23.352Z,75.29
2018-05-03T06:43:27.715Z,71.71
2018-05-03T06:49:32.945Z,70.20
2018-05-03T06:55:37.364Z,67.59
2018-05-03T07:01:41.781Z,65.82
2018-05-03T07:07:46.131Z,64.30
2018-05-03T07:13:51.304Z,63.94
2018-05-03T07:19:55.835Z,61.07
2018-05-03T07:26:00.184Z,59.24
2018-05-03T07:32:05.469Z,58.72
2018-05-03T07:38:10.596Z,55.21
2018-05-03T07:44:15.086Z,55.53
2018-05-03T07:50:19.572Z,56.37
2018-05-03T07:56:24.027Z,56.26
2018-05-03T08:02:29.384Z,57.88
2018-05-03T08:08:33.801Z,58.72
2018-05-03T08:14:38.267Z,58.84
2018-05-03T08:20:42.652Z,59.21
2018-05-03T08:26:47.019Z,58.88
2018-05-03T08:32:52.022Z,58.45
2018-05-03T08:38:56.411Z,54.65
2018-05-03T08:45:00.856Z,52.29
2018-05-03T08:51:05.396Z,52.04
2018-05-03T08:57:10.536Z,50.94
2018-05-03T09:03:14.907Z,51.67
2018-05-03T09:09:19.504Z,53.52
2018-05-03T09:15:24.389Z,56.75
2018-05-03T09:21:28.847Z,56.16
2018-05-03T09:27:33.302Z,57.16
2018-05-03T09:33:37.697Z,56.47
2018-05-03T09:39:42.083Z,50.44
2018-05-03T09:45:46.549Z,46.29
2018-05-03T09:51:51.221Z,48.23
2018-05-03T09:57:55.860Z,45.86
2018-05-03T10:04:00.289Z,47.47
2018-05-03T10:10:04.674Z,44.56
2018-05-03T10:16:09.028Z,42.00
2018-05-03T10:22:13.443Z,42.29
2018-05-03T10:28:17.824Z,41.67
2018-05-03T10:34:22.475Z,41.73
2018-05-03T10:40:26.852Z,40.61
2018-05-03T10:46:31.320Z,38.43
2018-05-03T10:52:35.711Z,36.44
2018-05-03T10:58:40.220Z,34.43
2018-05-03T11:04:44.627Z,31.60
2018-05-03T11:10:49.883Z,32.63
2018-05-03T11:16:54.561Z,33.66
2018-05-03T11:22:59.016Z,31.29
2018-05-03T11:29:03.474Z,31.11
2018-05-03T11:35:07.872Z,28.35
2018-05-03T11:41:12.246Z,26.01
2018-05-03T11:47:16.628Z,25.73
2018-05-03T11:53:21.317Z,24.56
2018-05-03T11:59:25.836Z,23.48
2018-05-03T12:05:30.170Z,22.57
2018-05-03T12:11:34.528Z,26.06
2018-05-03T12:17:38.908Z,25.01
2018-05-03T12:23:43.297Z,22.53
2018-05-03T12:29:47.941Z,23.44
2018-05-03T12:35:52.663Z,22.52
2018-05-03T12:41:57.038Z,21.60
2018-05-03T12:48:01.421Z,21.39
2018-05-03T12:54:05.791Z,21.67
2018-05-03T13:00:10.243Z,20.60
2018-05-03T13:06:14.669Z,21.89
2018-05-03T13:12:19.181Z,20.03
2018-05-03T13:18:23.840Z,20.40
2018-05-03T13:24:29.729Z,20.90
2018-05-03T13:30:34.096Z,20.39
2018-05-03T13:36:38.548Z,19.36
2018-05-03T13:42:42.907Z,20.88
2018-05-03T13:48:47.289Z,21.17
2018-05-03T13:54:51.728Z,20.80
2018-05-03T14:00:56.871Z,18.12
2018-05-03T14:07:01.375Z,21.38
2018-05-03T14:13:05.875Z,21.29
2018-05-03T14:19:10.208Z,20.55
2018-05-03T14:25:14.665Z,21.49
2018-05-03T14:31:19.969Z,21.72
2018-05-03T14:37:24.607Z,19.93
2018-05-03T14:43:29.732Z,20.22
2018-05-03T14:49:34.860Z,19.40
2018-05-03T14:55:39.292Z,19.55
2018-05-03T15:01:43.784Z,19.99
2018-05-03T15:07:48.231Z,20.47
2018-05-03T15:13:53.407Z,18.71
2018-05-03T15:19:57.799Z,19.28
2018-05-03T15:36:40.091Z,19.71
2018-05-03T15:42:45.277Z,19.00
2018-05-03T15:48:50.731Z,20.50
2018-05-03T15:54:55.701Z,21.26
2018-05-03T16:01:00.146Z,19.26
2018-05-03T16:07:05.288Z,20.10
2018-05-03T16:13:09.766Z,20.24
2018-05-03T16:19:14.116Z,19.49
2018-05-03T16:25:18.588Z,19.65
2018-05-03T16:31:23.281Z,20.00
2018-05-03T16:37:27.655Z,20.78
2018-05-03T16:43:32.092Z,20.32
2018-05-03T16:49:37.309Z,19.96
2018-05-03T16:55:41.744Z,21.18
2018-05-03T17:01:46.100Z,22.34
2018-05-03T17:07:51.163Z,24.22
2018-05-03T17:13:55.695Z,22.79
2018-05-03T17:20:00.048Z,23.50
2018-05-03T17:26:04.424Z,23.96
2018-05-03T17:32:08.815Z,24.78
2018-05-03T17:38:13.318Z,24.61
2018-05-03T17:44:18.646Z,25.78
2018-05-03T17:50:23.296Z,25.98
2018-05-03T17:56:28.384Z,27.35
2018-05-03T18:02:33.503Z,28.37
2018-05-03T18:08:37.851Z,29.21
2018-05-03T18:14:43.142Z,29.98
2018-05-03T18:20:47.553Z,33.02
2018-05-03T18:26:52.110Z,33.26
2018-05-03T18:32:57.248Z,35.75
2018-05-03T18:39:01.643Z,39.42
2018-05-03T18:45:06.050Z,41.13
2018-05-03T18:51:11.207Z,43.06
2018-05-03T18:57:15.614Z,43.94
2018-05-03T19:03:20.057Z,44.90
2018-05-03T19:09:24.600Z,45.87
2018-05-03T19:15:28.908Z,46.34
2018-05-03T19:21:33.324Z,47.53
2018-05-03T19:27:37.671Z,46.21
2018-05-03T19:33:42.030Z,45.44
2018-05-03T19:39:46.387Z,45.43
2018-05-03T19:45:51.423Z,45.67
2018-05-03T19:51:56.015Z,46.83
2018-05-03T19:58:00.577Z,44.84
2018-05-03T20:04:05.714Z,44.31
2018-05-03T20:10:10.058Z,45.33
2018-05-03T20:16:15.263Z,47.60
2018-05-03T20:22:19.823Z,47.68
2018-05-03T20:28:24.437Z,48.67
2018-05-03T20:34:28.832Z,50.08
2018-05-03T20:40:33.289Z,50.82
2018-05-03T20:46:37.644Z,52.00
2018-05-03T20:52:42.081Z,52.85
2018-05-03T20:58:46.445Z,51.06
2018-05-03T21:04:52.032Z,52.15
2018-05-03T21:10:56.445Z,54.89
2018-05-03T21:17:01.641Z,56.73
2018-05-03T21:23:06.040Z,56.68
2018-05-03T21:29:10.445Z,57.85
2018-05-03T21:35:14.810Z,58.22
2018-05-03T21:41:19.467Z,58.24
2018-05-03T21:47:24.123Z,59.42
2018-05-03T21:53:28.469Z,60.51
2018-05-03T21:59:32.913Z,61.23
2018-05-03T22:05:37.378Z,62.01
2018-05-03T22:11:41.782Z,63.12
2018-05-03T22:17:46.142Z,63.19
2018-05-03T22:23:51.244Z,62.58
2018-05-03T22:29:55.753Z,62.54
2018-05-03T22:36:00.102Z,63.04
2018-05-03T22:42:04.507Z,63.78
2018-05-03T22:48:08.878Z,64.13
2018-05-03T22:54:13.236Z,64.24
2018-05-03T23:00:17.585Z,64.43
2018-05-03T23:06:21.670Z,64.71
2018-05-03T23:12:26.007Z,65.14
2018-05-03T23:18:32.041Z,65.04
2018-05-03T23:24:36.751Z,65.41
2018-05-03T23:30:41.108Z,66.02
2018-05-03T23:36:45.461Z,66.15
2018-05-03T23:42:51.379Z,66.19
2018-05-03T23:48:56.485Z,66.41
2018-05-03T23:55:00.825Z,66.45
